ADDS METAR Data INFO
IDs: Format: Raw Decoded Include TAF

Data at: 1408 UTC 24 Feb 2018

KLXT 241403Z AUTO 08008KT 4SM BR OVC004 02/02 A2993 RMK AO2 T00170017
KLXT 241353Z AUTO 08011KT 2 1/2SM BR OVC004 02/02 A2993 RMK AO2 SLP142 T00170017
KLXT 241326Z AUTO 08014KT 2 1/2SM BR OVC004 02/02 A2992 RMK AO2 T00170017
KLXT 241304Z AUTO 08013KT 3SM BR OVC004 02/01 A2994 RMK AO2 T00170011
KLXT 241253Z AUTO 08012KT 3SM BR OVC005 02/01 A2994 RMK AO2 SLP146 T00170011
KLXT 241228Z AUTO 08011KT 2 1/2SM BR OVC005 02/01 A2995 RMK AO2 T00170011
KLXT 241217Z AUTO 08014KT 3SM BR OVC005 02/01 A2996 RMK AO2 T00170011
KLXT 241200Z AUTO 08013KT 2 1/2SM BR OVC005 02/01 A2996 RMK AO2 T00170011
KLXT 241153Z AUTO 08011G20KT 3SM BR OVC004 02/01 A2996 RMK AO2 SLP153 60007 70015 T00170011 10017 20006 58017
KLXT 241117Z AUTO 06012KT 3SM BR OVC004 01/01 A2997 RMK AO2 T00110011
KLXT 241109Z AUTO 06012KT 2 1/2SM BR OVC004 02/01 A2998 RMK AO2 T00170011
KLXT 241053Z AUTO 07015G19KT 3SM BR OVC004 01/01 A2998 RMK AO2 UPB0957E09 SLP161 P0000 T00110011
KLXT 241043Z AUTO 08011KT 2 1/2SM BR OVC004 01/01 A2999 RMK AO2 UPB0957E09 P0000 T00110011
KLXT 241006Z AUTO 07010KT 3SM UP BR OVC004 01/01 A3000 RMK AO2 UPB0957 P0000 T00110011
KLXT 240953Z AUTO 06010KT 3SM BR OVC005 01/01 A3000 RMK AO2 UPE29 SLP167 P0001 T00110011
KLXT 240910Z AUTO 07011KT 4SM UP BR OVC005 01/01 A3001 RMK AO2 P0001 T00110011
KLXT 240853Z AUTO 07014G22KT 4SM UP BR OVC004 01/01 A3001 RMK AO2 RAE21B46E51UPB21 SLP171 P0002 60006 T00110011 58034
KLXT 240806Z AUTO 05012KT 3SM -RA BR OVC004 01/01 A3006 RMK AO2 P0001 T00110011
KLXT 240753Z AUTO 06014KT 2 1/2SM -RA BR OVC004 01/01 A3006 RMK AO2 UPE05B16E41RAB05E16B41 SLP185 P0003 T00110011
KLXT 240746Z AUTO 06011KT 2 1/2SM -RA BR OVC004 01/01 A3006 RMK AO2 UPE05B16E41RAB05E16B41 P0003 T00110011
KLXT 240722Z AUTO 05012G18KT 3SM UP BR OVC005 01/01 A3007 RMK AO2 UPE05B16RAB05E16 P0001 T00110006
KLXT 240708Z AUTO 05011KT 2 1/2SM -RA BR OVC005 01/01 A3008 RMK AO2 UPE05RAB05 P0001 T00110006
KLXT 240653Z AUTO 06009KT 3SM UP BR OVC005 01/01 A3009 RMK AO2 UPB01E14B29RAB14E29 SLP197 P0001 T00060006
KLXT 240553Z AUTO 05010KT 6SM BR BKN006 OVC017 01/01 A3012 RMK AO2 UPB0459E14B32E43 PRESFR SLP207 P0001 60008 T00060006 10011 20006 400170006 58029
KLXT 240453Z AUTO 03009KT 6SM BR BKN006 OVC020 01/00 A3015 RMK AO2 RAE13UPB13E43 CIG 004V010 SLP220 P0001 T00060000
KLXT 240440Z AUTO 03008KT 5SM UP BR SCT006 OVC020 01/00 A3016 RMK AO2 RAE13UPB13 PRESFR P0001 T00060000
KLXT 240353Z AUTO 06007KT 5SM -RA BR OVC021 01/00 A3018 RMK AO2 RAB00UPB13E18 PRESFR SLP228 P0006 T00060000
KLXT 240326Z AUTO 04007KT 5SM RA BR SCT009 BKN015 OVC023 01/00 A3021 RMK AO2 RAB00UPB13E18 P0002 T00110000
KLXT 240302Z AUTO 06006KT 10SM -RA BKN015 OVC023 01/00 A3020 RMK AO2 RAB00 P0000 T00110000
KLXT 240253Z AUTO 06006KT 10SM BKN013 OVC025 01/00 A3020 RMK AO2 SLP237 T00110000 56015
KLXT 240153Z AUTO 09007KT 060V150 10SM OVC010 01/M01 A3021 RMK AO2 SLP240 T00111006
KLXT 240053Z AUTO 06006KT 10SM OVC009 01/M01 A3023 RMK AO2 SLP247 T00111006
KLXT 240041Z AUTO 05005KT 10SM BKN009 OVC013 01/M01 A3023 RMK AO2 T00111006
KLXT 232353Z AUTO 05005KT 10SM OVC012 01/M01 A3025 RMK AO2 SLP253 T00111006 10017 20011 58002
KLXT 232253Z AUTO 07004KT 10SM OVC012 02/M01 A3026 RMK AO2 SLP255 T00171006
KLXT 232153Z AUTO 04003KT 10SM OVC012 02/M01 A3025 RMK AO2 SLP254 T00171006
KLXT 232053Z AUTO 06005KT 10SM OVC013 02/00 A3025 RMK AO2 SLP253 T00170000 58010
KLXT 231953Z AUTO 01005KT 10SM OVC011 02/M01 A3028 RMK AO2 SLP263 T00171006
KLXT 231853Z AUTO 35005KT 10SM OVC011 02/00 A3029 RMK AO2 SLP267 T00170000
KLXT 231753Z AUTO 33004KT 10SM OVC010 01/00 A3029 RMK AO2 SLP265 T00110000 10017 20006
KLXT 231653Z AUTO 31005KT 10SM OVC010 01/00 A3030 RMK AO2 SLP271 T00110000
KLXT 231613Z AUTO 33006KT 10SM OVC009 01/00 A3031 RMK AO2 T00110000
KLXT 231553Z AUTO 34006KT 10SM OVC010 01/01 A3030 RMK AO2 SLP270 T00110006 $
KLXT 231503Z AUTO 33007KT 9SM SCT007 OVC014 01/01 A3029 RMK AO2 T00110006 $
KLXT 231453Z AUTO 32006KT 7SM BKN007 OVC013 01/01 A3029 RMK AO2 CIG 005V010 SLP266 T00110011 $
KLXT 231420Z AUTO 30003KT 5SM BR OVC008 01/01 A3029 RMK AO2 CIG 004V011 T00110011 $
KLXT 231354Z AUTO 29004KT 6SM BR 01/01 A3027 RMK AO2 SLP260 T00060006 $
KLXT 231253Z AUTO 26003KT 10SM BKN008 OVC018 01/01 A3025 RMK AO2 CIG 007V012 SLP253 T00060006 $
KLXT 231250Z AUTO 25003KT 10SM BKN010 OVC018 01/01 A3025 RMK AO2 CIG 007V012 $
KLXT 231218Z AUTO 27003KT 10SM BKN008 OVC020 01/01 A3024 RMK AO2 T00060006 $
KLXT 231201Z AUTO 27003KT 10SM SCT007 OVC020 01/01 A3023 RMK AO2 T00060006 $
KLXT 231153Z AUTO 27003KT 10SM BKN007 OVC020 01/01 A3022 RMK AO2 SLP244 70005 T00060006 10011 20006 53009 $
KLXT 231053Z AUTO 29007KT 9SM OVC005 01/01 A3021 RMK AO2 SLP238 T00060006 $
KLXT 231042Z AUTO 28006KT 9SM OVC005 01/01 A3020 RMK AO2 T00060006 $
KLXT 231005Z AUTO 28007KT 10SM OVC004 01/01 A3020 RMK AO2 T00060006 $
KLXT 230953Z AUTO 28007KT 230V290 10SM OVC003 01/01 A3020 RMK AO2 SLP235 T00060006 $
KLXT 230939Z AUTO 29007G16KT 9SM OVC003 01/01 A3019 RMK AO2 T00060006 $
KLXT 230913Z AUTO 27006KT 3SM BR OVC002 01/01 A3020 RMK AO2 T00110006 $
KLXT 230853Z AUTO 26006KT 1 1/2SM BR OVC002 01/01 A3020 RMK AO2 SLP235 T00110006 51008 $
KLXT 230850Z AUTO 25006KT 1 1/2SM BR OVC002 01/01 A3020 RMK AO2 $
KLXT 230835Z AUTO 26005KT 2 1/2SM BR OVC002 01/01 A3019 RMK AO2 T00060006 $
KLXT 230819Z AUTO 27005KT 5SM BR OVC003 01/01 A3019 RMK AO2 CIG 002V007 T00060006 $
KLXT 230808Z AUTO 25004KT 6SM BR BKN004 OVC008 01/01 A3018 RMK AO2 T00060006 $
KLXT 230753Z AUTO 27004KT 6SM BR OVC009 01/01 A3018 RMK AO2 CIG 004V011 SLP229 T00060006 $
KLXT 230702Z AUTO 00000KT 6SM BR BKN008 OVC033 01/01 A3017 RMK AO2 T00060006 $
KLXT 230653Z AUTO 00000KT 5SM BR FEW003 BKN017 OVC036 01/01 A3017 RMK AO2 SLP227 T00060006 $
KLXT 230639Z AUTO 00000KT 5SM BR SCT003 OVC015 01/01 A3018 RMK AO2 T00060006 $
KLXT 230553Z AUTO 28004KT 4SM BR BKN003 OVC019 01/01 A3019 RMK AO2 SLP232 P0001 60005 T00060006 10006 20006 400061033 50009 $
KLXT 230543Z AUTO 29005KT 3SM BR BKN003 OVC019 01/01 A3018 RMK AO2 P0001 T00060006 $
KLXT 230532Z AUTO 29004KT 2SM BR OVC003 01/01 A3018 RMK AO2 P0001 T00060006 $
KLXT 230453Z AUTO 29004KT 1 1/2SM BR OVC004 01/01 A3019 RMK AO2 UPB16E28 SLP232 P0001 T00060006 $
KLXT 230435Z AUTO 30004KT 1 3/4SM BR OVC004 01/01 A3018 RMK AO2 UPB16E28 P0001 T00060006 $
KLXT 230411Z AUTO 28005KT 1SM BR VV003 01/01 A3018 RMK AO2 T00060006 $
KLXT 230403Z AUTO 27005KT 1SM BR VV004 01/01 A3018 RMK AO2 T00060006 $
KLXT 230353Z AUTO 25004KT 3/4SM BR VV003 01/01 A3017 RMK AO2 UPE02B14E20RAB02E14 SLP228 P0002 T00060006 $
KLXT 230341Z AUTO 28004KT 1/2SM FG VV003 01/01 A3016 RMK AO2 UPE02B14E20RAB02E14 P0002 T00060006 $
KLXT 230306Z AUTO 03003KT 1/2SM -RA FG VV004 01/01 A3015 RMK AO2 UPE02RAB02 P0001 T00060006 $
KLXT 230253Z AUTO 00000KT 1/2SM UP FG VV003 01/01 A3016 RMK AO2 UPE0156B35RAB25E35 SLP222 P0001 60001 T00060006 58010 $
KLXT 230210Z AUTO 30004KT 3/4SM BR VV003 01/01 A3018 RMK AO2 UPE0156 P0000 T00060006 $